sensor_id;sensor_type;location;lat;lon;timestamp;pressure;altitude;pressure_sealevel;temperature;humidity
75172;BME280;63750;52.418;20.742;2022-12-07T00:00:16;99944.52;;;4.76;66.98
75172;BME280;63750;52.418;20.742;2022-12-07T00:02:45;99940.08;;;4.75;67.11
75172;BME280;63750;52.418;20.742;2022-12-07T00:05:13;99941.98;;;4.73;67.38
75172;BME280;63750;52.418;20.742;2022-12-07T00:07:42;99938.74;;;4.72;67.06
75172;BME280;63750;52.418;20.742;2022-12-07T00:10:10;99936.70;;;4.73;67.40
75172;BME280;63750;52.418;20.742;2022-12-07T00:12:39;99937.18;;;4.74;67.15
75172;BME280;63750;52.418;20.742;2022-12-07T00:15:09;99931.73;;;4.76;67.29
75172;BME280;63750;52.418;20.742;2022-12-07T00:17:38;99931.39;;;4.78;67.39
75172;BME280;63750;52.418;20.742;2022-12-07T00:20:08;99932.02;;;4.84;67.69
75172;BME280;63750;52.418;20.742;2022-12-07T00:22:36;99929.63;;;4.93;67.86
75172;BME280;63750;52.418;20.742;2022-12-07T00:25:06;99931.17;;;4.98;67.73
75172;BME280;63750;52.418;20.742;2022-12-07T00:27:34;99927.75;;;4.99;67.21
75172;BME280;63750;52.418;20.742;2022-12-07T00:30:04;99926.54;;;4.99;67.32
75172;BME280;63750;52.418;20.742;2022-12-07T00:32:33;99926.27;;;4.98;67.23
75172;BME280;63750;52.418;20.742;2022-12-07T00:35:01;99928.54;;;4.95;66.90
75172;BME280;63750;52.418;20.742;2022-12-07T00:37:30;99928.45;;;4.90;67.02
75172;BME280;63750;52.418;20.742;2022-12-07T00:39:58;99929.42;;;4.86;67.48
75172;BME280;63750;52.418;20.742;2022-12-07T00:42:26;99927.59;;;4.82;67.33
75172;BME280;63750;52.418;20.742;2022-12-07T00:44:55;99921.48;;;4.79;67.52
75172;BME280;63750;52.418;20.742;2022-12-07T00:47:23;99918.66;;;4.79;67.71
75172;BME280;63750;52.418;20.742;2022-12-07T00:49:52;99918.29;;;4.80;67.41
75172;BME280;63750;52.418;20.742;2022-12-07T00:52:20;99918.20;;;4.79;67.42
75172;BME280;63750;52.418;20.742;2022-12-07T00:54:50;99917.74;;;4.78;67.61
75172;BME280;63750;52.418;20.742;2022-12-07T00:57:18;99916.30;;;4.78;67.73
75172;BME280;63750;52.418;20.742;2022-12-07T00:59:47;99917.02;;;4.83;68.20
75172;BME280;63750;52.418;20.742;2022-12-07T01:02:19;99919.77;;;4.91;68.30
75172;BME280;63750;52.418;20.742;2022-12-07T01:04:48;99915.77;;;4.92;68.07
75172;BME280;63750;52.418;20.742;2022-12-07T01:07:17;99919.35;;;4.96;67.76
75172;BME280;63750;52.418;20.742;2022-12-07T01:09:45;99914.13;;;4.98;67.75
75172;BME280;63750;52.418;20.742;2022-12-07T01:12:13;99914.81;;;5.01;67.47
75172;BME280;63750;52.418;20.742;2022-12-07T01:14:42;99912.70;;;5.03;67.77
75172;BME280;63750;52.418;20.742;2022-12-07T01:17:11;99908.91;;;5.03;67.74
75172;BME280;63750;52.418;20.742;2022-12-07T01:19:42;99907.05;;;5.02;67.56
75172;BME280;63750;52.418;20.742;2022-12-07T01:22:12;99907.94;;;4.99;67.72
75172;BME280;63750;52.418;20.742;2022-12-07T01:24:41;99904.72;;;4.97;67.81
75172;BME280;63750;52.418;20.742;2022-12-07T01:27:10;99903.63;;;4.93;67.68
75172;BME280;63750;52.418;20.742;2022-12-07T01:29:39;99906.54;;;4.91;67.76
75172;BME280;63750;52.418;20.742;2022-12-07T01:32:10;99903.81;;;4.93;67.85
75172;BME280;63750;52.418;20.742;2022-12-07T01:34:39;99902.73;;;4.93;67.65
75172;BME280;63750;52.418;20.742;2022-12-07T01:37:09;99905.19;;;4.93;68.02
75172;BME280;63750;52.418;20.742;2022-12-07T01:39:39;99902.86;;;4.91;68.15
75172;BME280;63750;52.418;20.742;2022-12-07T01:42:11;99899.27;;;4.88;68.22
75172;BME280;63750;52.418;20.742;2022-12-07T01:47:39;99894.44;;;4.87;68.18
75172;BME280;63750;52.418;20.742;2022-12-07T01:50:09;99890.15;;;4.88;68.25
75172;BME280;63750;52.418;20.742;2022-12-07T01:52:40;99889.55;;;4.87;68.32
75172;BME280;63750;52.418;20.742;2022-12-07T01:55:12;99885.17;;;4.84;68.26
75172;BME280;63750;52.418;20.742;2022-12-07T01:57:45;99885.97;;;4.85;68.15
75172;BME280;63750;52.418;20.742;2022-12-07T02:00:17;99882.39;;;4.86;68.56
75172;BME280;63750;52.418;20.742;2022-12-07T02:02:49;99880.44;;;4.86;68.38
75172;BME280;63750;52.418;20.742;2022-12-07T02:05:20;99879.61;;;4.83;68.08
75172;BME280;63750;52.418;20.742;2022-12-07T02:07:50;99879.00;;;4.82;68.33
75172;BME280;63750;52.418;20.742;2022-12-07T02:10:25;99875.61;;;4.83;68.60
75172;BME280;63750;52.418;20.742;2022-12-07T02:12:57;99877.95;;;4.82;68.68
75172;BME280;63750;52.418;20.742;2022-12-07T02:15:34;99876.97;;;4.81;68.63
75172;BME280;63750;52.418;20.742;2022-12-07T02:18:12;99871.68;;;4.81;68.83
75172;BME280;63750;52.418;20.742;2022-12-07T02:20:51;99873.61;;;4.81;68.85
75172;BME280;63750;52.418;20.742;2022-12-07T02:23:53;99875.03;;;4.81;69.12
75172;BME280;63750;52.418;20.742;2022-12-07T02:29:35;99872.77;;;4.72;69.10
75172;BME280;63750;52.418;20.742;2022-12-07T02:32:10;99870.28;;;4.72;69.41
75172;BME280;63750;52.418;20.742;2022-12-07T02:34:46;99871.64;;;4.72;69.39
75172;BME280;63750;52.418;20.742;2022-12-07T02:37:24;99869.20;;;4.70;69.61
75172;BME280;63750;52.418;20.742;2022-12-07T02:39:58;99867.67;;;4.69;69.44
75172;BME280;63750;52.418;20.742;2022-12-07T02:42:33;99866.93;;;4.70;69.68
75172;BME280;63750;52.418;20.742;2022-12-07T02:45:05;99867.15;;;4.76;69.87
75172;BME280;63750;52.418;20.742;2022-12-07T02:47:35;99866.92;;;4.82;69.87
75172;BME280;63750;52.418;20.742;2022-12-07T02:50:07;99868.15;;;4.86;69.82
75172;BME280;63750;52.418;20.742;2022-12-07T02:52:35;99864.70;;;4.88;69.72
75172;BME280;63750;52.418;20.742;2022-12-07T02:55:05;99866.22;;;4.88;69.80
75172;BME280;63750;52.418;20.742;2022-12-07T02:57:49;99864.35;;;4.92;69.67
75172;BME280;63750;52.418;20.742;2022-12-07T03:00:22;99864.64;;;4.93;70.00
75172;BME280;63750;52.418;20.742;2022-12-07T03:02:58;99864.34;;;4.92;69.98
75172;BME280;63750;52.418;20.742;2022-12-07T03:05:41;99862.64;;;4.92;69.76
75172;BME280;63750;52.418;20.742;2022-12-07T03:08:15;99862.62;;;4.92;69.34
75172;BME280;63750;52.418;20.742;2022-12-07T03:10:54;99857.23;;;4.91;69.67
75172;BME280;63750;52.418;20.742;2022-12-07T03:13:28;99855.61;;;4.90;69.85
75172;BME280;63750;52.418;20.742;2022-12-07T03:16:05;99859.15;;;4.87;69.79
75172;BME280;63750;52.418;20.742;2022-12-07T03:18:38;99857.80;;;4.89;70.15
75172;BME280;63750;52.418;20.742;2022-12-07T03:21:11;99858.10;;;4.89;69.74
75172;BME280;63750;52.418;20.742;2022-12-07T03:23:43;99858.46;;;4.89;70.10
75172;BME280;63750;52.418;20.742;2022-12-07T03:26:14;99856.30;;;4.87;70.25
75172;BME280;63750;52.418;20.742;2022-12-07T03:28:49;99853.36;;;4.84;70.10
75172;BME280;63750;52.418;20.742;2022-12-07T03:31:21;99853.85;;;4.85;70.30
75172;BME280;63750;52.418;20.742;2022-12-07T03:33:57;99847.65;;;4.88;70.20
75172;BME280;63750;52.418;20.742;2022-12-07T03:36:32;99842.96;;;4.89;70.07
75172;BME280;63750;52.418;20.742;2022-12-07T03:39:08;99835.30;;;4.89;70.28
75172;BME280;63750;52.418;20.742;2022-12-07T03:41:41;99831.13;;;4.86;70.44
75172;BME280;63750;52.418;20.742;2022-12-07T03:44:10;99828.48;;;4.91;70.28
75172;BME280;63750;52.418;20.742;2022-12-07T03:46:44;99827.99;;;4.95;70.25
75172;BME280;63750;52.418;20.742;2022-12-07T03:49:18;99830.55;;;4.96;70.29
75172;BME280;63750;52.418;20.742;2022-12-07T03:51:54;99834.83;;;4.95;70.39
75172;BME280;63750;52.418;20.742;2022-12-07T03:54:26;99832.66;;;4.93;70.30
75172;BME280;63750;52.418;20.742;2022-12-07T03:56:59;99830.45;;;4.95;70.22
75172;BME280;63750;52.418;20.742;2022-12-07T03:59:30;99827.61;;;4.98;70.25
75172;BME280;63750;52.418;20.742;2022-12-07T04:02:04;99824.50;;;5.02;70.39
75172;BME280;63750;52.418;20.742;2022-12-07T04:04:34;99824.41;;;5.03;70.28
75172;BME280;63750;52.418;20.742;2022-12-07T04:07:03;99824.33;;;5.07;70.04
75172;BME280;63750;52.418;20.742;2022-12-07T04:09:31;99819.45;;;5.08;70.13
75172;BME280;63750;52.418;20.742;2022-12-07T04:12:00;99820.87;;;5.06;70.17
75172;BME280;63750;52.418;20.742;2022-12-07T04:14:28;99816.82;;;5.06;70.34
75172;BME280;63750;52.418;20.742;2022-12-07T04:16:58;99818.83;;;5.00;70.19
75172;BME280;63750;52.418;20.742;2022-12-07T04:19:29;99819.48;;;4.94;70.16
75172;BME280;63750;52.418;20.742;2022-12-07T04:21:58;99821.95;;;4.91;70.30
75172;BME280;63750;52.418;20.742;2022-12-07T04:24:27;99822.92;;;4.90;70.37
75172;BME280;63750;52.418;20.742;2022-12-07T04:26:57;99820.70;;;4.87;70.35
75172;BME280;63750;52.418;20.742;2022-12-07T04:29:26;99820.92;;;4.82;70.34
75172;BME280;63750;52.418;20.742;2022-12-07T04:31:54;99816.87;;;4.77;70.36
75172;BME280;63750;52.418;20.742;2022-12-07T04:34:23;99816.48;;;4.73;70.54
75172;BME280;63750;52.418;20.742;2022-12-07T04:36:51;99816.64;;;4.74;70.55
75172;BME280;63750;52.418;20.742;2022-12-07T04:39:22;99813.05;;;4.70;70.73
75172;BME280;63750;52.418;20.742;2022-12-07T04:41:51;99811.32;;;4.65;70.41
75172;BME280;63750;52.418;20.742;2022-12-07T04:44:21;99809.41;;;4.67;70.59
75172;BME280;63750;52.418;20.742;2022-12-07T04:46:50;99809.17;;;4.65;70.47
75172;BME280;63750;52.418;20.742;2022-12-07T04:49:20;99807.95;;;4.68;70.96
75172;BME280;63750;52.418;20.742;2022-12-07T04:51:48;99807.08;;;4.68;70.65
75172;BME280;63750;52.418;20.742;2022-12-07T04:54:17;99809.05;;;4.62;70.55
75172;BME280;63750;52.418;20.742;2022-12-07T04:56:46;99807.34;;;4.59;70.32
75172;BME280;63750;52.418;20.742;2022-12-07T04:59:15;99803.73;;;4.58;70.66
75172;BME280;63750;52.418;20.742;2022-12-07T05:01:44;99801.32;;;4.60;70.65
75172;BME280;63750;52.418;20.742;2022-12-07T05:04:13;99797.70;;;4.64;70.60
75172;BME280;63750;52.418;20.742;2022-12-07T05:06:41;99796.74;;;4.60;70.61
75172;BME280;63750;52.418;20.742;2022-12-07T05:09:09;99795.70;;;4.57;70.97
75172;BME280;63750;52.418;20.742;2022-12-07T05:11:38;99793.17;;;4.58;70.82
75172;BME280;63750;52.418;20.742;2022-12-07T05:14:09;99795.33;;;4.63;70.75
75172;BME280;63750;52.418;20.742;2022-12-07T05:16:38;99794.97;;;4.60;70.55
75172;BME280;63750;52.418;20.742;2022-12-07T05:19:08;99797.72;;;4.56;70.59
75172;BME280;63750;52.418;20.742;2022-12-07T05:21:37;99795.41;;;4.54;70.41
75172;BME280;63750;52.418;20.742;2022-12-07T05:24:07;99790.54;;;4.54;70.33
75172;BME280;63750;52.418;20.742;2022-12-07T05:26:36;99794.80;;;4.50;70.35
75172;BME280;63750;52.418;20.742;2022-12-07T05:29:05;99793.44;;;4.47;70.53
75172;BME280;63750;52.418;20.742;2022-12-07T05:31:33;99793.04;;;4.46;70.56
75172;BME280;63750;52.418;20.742;2022-12-07T05:34:01;99792.39;;;4.45;70.54
75172;BME280;63750;52.418;20.742;2022-12-07T05:36:30;99790.54;;;4.45;70.67
75172;BME280;63750;52.418;20.742;2022-12-07T05:39:01;99790.77;;;4.44;70.46
75172;BME280;63750;52.418;20.742;2022-12-07T05:41:30;99792.48;;;4.44;70.67
75172;BME280;63750;52.418;20.742;2022-12-07T05:43:59;99787.34;;;4.47;70.29
75172;BME280;63750;52.418;20.742;2022-12-07T05:46:27;99786.35;;;4.44;70.68
75172;BME280;63750;52.418;20.742;2022-12-07T05:48:57;99792.16;;;4.46;70.67
75172;BME280;63750;52.418;20.742;2022-12-07T05:51:26;99790.83;;;4.47;70.61
75172;BME280;63750;52.418;20.742;2022-12-07T05:53:57;99792.80;;;4.47;70.53
75172;BME280;63750;52.418;20.742;2022-12-07T05:56:26;99793.20;;;4.46;70.17
75172;BME280;63750;52.418;20.742;2022-12-07T05:58:55;99793.35;;;4.44;70.32
75172;BME280;63750;52.418;20.742;2022-12-07T06:01:23;99792.98;;;4.42;70.51
75172;BME280;63750;52.418;20.742;2022-12-07T06:03:53;99791.23;;;4.42;70.17
75172;BME280;63750;52.418;20.742;2022-12-07T06:06:22;99792.86;;;4.44;70.48
75172;BME280;63750;52.418;20.742;2022-12-07T06:08:52;99795.17;;;4.48;70.80
75172;BME280;63750;52.418;20.742;2022-12-07T06:11:21;99792.98;;;4.56;71.20
75172;BME280;63750;52.418;20.742;2022-12-07T06:13:52;99789.23;;;4.62;70.55
75172;BME280;63750;52.418;20.742;2022-12-07T06:16:23;99786.73;;;4.68;70.29
75172;BME280;63750;52.418;20.742;2022-12-07T06:18:53;99786.21;;;4.70;70.23
75172;BME280;63750;52.418;20.742;2022-12-07T06:21:22;99785.09;;;4.66;69.75
75172;BME280;63750;52.418;20.742;2022-12-07T06:23:51;99780.64;;;4.62;69.51
75172;BME280;63750;52.418;20.742;2022-12-07T06:26:20;99781.72;;;4.59;69.51
75172;BME280;63750;52.418;20.742;2022-12-07T06:28:48;99781.11;;;4.56;69.28
75172;BME280;63750;52.418;20.742;2022-12-07T06:31:18;99777.83;;;4.55;69.71
75172;BME280;63750;52.418;20.742;2022-12-07T06:33:47;99778.95;;;4.54;69.56
75172;BME280;63750;52.418;20.742;2022-12-07T06:36:15;99781.50;;;4.53;69.91
75172;BME280;63750;52.418;20.742;2022-12-07T06:38:44;99785.35;;;4.50;69.73
75172;BME280;63750;52.418;20.742;2022-12-07T06:41:12;99784.41;;;4.51;69.62
75172;BME280;63750;52.418;20.742;2022-12-07T06:43:40;99780.71;;;4.54;69.93
75172;BME280;63750;52.418;20.742;2022-12-07T06:46:09;99782.29;;;4.56;69.88
75172;BME280;63750;52.418;20.742;2022-12-07T06:48:37;99782.48;;;4.60;70.23
75172;BME280;63750;52.418;20.742;2022-12-07T06:51:06;99780.48;;;4.61;69.85
75172;BME280;63750;52.418;20.742;2022-12-07T06:53:35;99781.36;;;4.59;69.53
75172;BME280;63750;52.418;20.742;2022-12-07T06:56:07;99780.48;;;4.50;69.64
75172;BME280;63750;52.418;20.742;2022-12-07T06:58:35;99775.48;;;4.39;69.19
75172;BME280;63750;52.418;20.742;2022-12-07T07:01:07;99780.84;;;4.31;69.69
75172;BME280;63750;52.418;20.742;2022-12-07T07:03:36;99779.13;;;4.25;69.51
75172;BME280;63750;52.418;20.742;2022-12-07T07:06:05;99780.33;;;4.23;69.62
75172;BME280;63750;52.418;20.742;2022-12-07T07:08:34;99779.77;;;4.21;69.92
75172;BME280;63750;52.418;20.742;2022-12-07T07:11:04;99785.45;;;4.20;69.94
75172;BME280;63750;52.418;20.742;2022-12-07T07:13:35;99783.67;;;4.18;69.57
75172;BME280;63750;52.418;20.742;2022-12-07T07:16:04;99780.57;;;4.13;69.98
75172;BME280;63750;52.418;20.742;2022-12-07T07:18:34;99779.85;;;4.08;70.34
75172;BME280;63750;52.418;20.742;2022-12-07T07:21:05;99775.69;;;4.05;70.30
75172;BME280;63750;52.418;20.742;2022-12-07T07:23:34;99775.75;;;4.02;70.38
75172;BME280;63750;52.418;20.742;2022-12-07T07:26:04;99778.14;;;4.03;70.56
75172;BME280;63750;52.418;20.742;2022-12-07T07:28:36;99777.70;;;4.04;70.40
75172;BME280;63750;52.418;20.742;2022-12-07T07:31:06;99779.39;;;4.02;70.53
75172;BME280;63750;52.418;20.742;2022-12-07T07:33:34;99780.40;;;4.01;70.69
75172;BME280;63750;52.418;20.742;2022-12-07T07:36:06;99778.03;;;4.05;70.68
75172;BME280;63750;52.418;20.742;2022-12-07T07:38:35;99781.79;;;4.06;70.73
75172;BME280;63750;52.418;20.742;2022-12-07T07:41:04;99781.48;;;4.07;70.67
75172;BME280;63750;52.418;20.742;2022-12-07T07:43:33;99781.84;;;4.12;70.75
75172;BME280;63750;52.418;20.742;2022-12-07T07:46:01;99782.11;;;4.16;70.79
75172;BME280;63750;52.418;20.742;2022-12-07T07:48:30;99785.32;;;4.17;70.98
75172;BME280;63750;52.418;20.742;2022-12-07T07:50:58;99782.58;;;4.19;70.70
75172;BME280;63750;52.418;20.742;2022-12-07T07:53:29;99780.89;;;4.20;70.77
75172;BME280;63750;52.418;20.742;2022-12-07T07:55:57;99782.77;;;4.21;70.87
75172;BME280;63750;52.418;20.742;2022-12-07T07:58:26;99779.71;;;4.22;70.81
75172;BME280;63750;52.418;20.742;2022-12-07T08:00:54;99779.40;;;4.22;70.88
75172;BME280;63750;52.418;20.742;2022-12-07T08:03:23;99782.64;;;4.23;70.96
75172;BME280;63750;52.418;20.742;2022-12-07T08:05:52;99783.01;;;4.15;71.06
75172;BME280;63750;52.418;20.742;2022-12-07T08:08:21;99784.15;;;4.17;70.98
75172;BME280;63750;52.418;20.742;2022-12-07T08:10:51;99788.79;;;4.13;70.72
75172;BME280;63750;52.418;20.742;2022-12-07T08:13:22;99788.54;;;4.12;71.02
75172;BME280;63750;52.418;20.742;2022-12-07T08:15:51;99786.85;;;4.11;71.22
75172;BME280;63750;52.418;20.742;2022-12-07T08:18:20;99790.53;;;4.08;71.13
75172;BME280;63750;52.418;20.742;2022-12-07T08:20:50;99795.95;;;4.06;71.76
75172;BME280;63750;52.418;20.742;2022-12-07T08:23:20;99793.48;;;4.06;71.19
75172;BME280;63750;52.418;20.742;2022-12-07T08:25:48;99795.38;;;4.09;71.38
75172;BME280;63750;52.418;20.742;2022-12-07T08:28:17;99797.98;;;4.12;71.62
75172;BME280;63750;52.418;20.742;2022-12-07T08:30:47;99796.46;;;4.14;71.74
75172;BME280;63750;52.418;20.742;2022-12-07T08:33:16;99797.80;;;4.15;71.68
75172;BME280;63750;52.418;20.742;2022-12-07T08:35:48;99798.34;;;4.15;71.98
75172;BME280;63750;52.418;20.742;2022-12-07T08:38:17;99801.20;;;4.16;72.15
75172;BME280;63750;52.418;20.742;2022-12-07T08:40:52;99802.30;;;4.18;72.19
75172;BME280;63750;52.418;20.742;2022-12-07T08:43:23;99804.96;;;4.25;72.03
75172;BME280;63750;52.418;20.742;2022-12-07T08:45:59;99803.27;;;4.31;72.10
75172;BME280;63750;52.418;20.742;2022-12-07T08:48:36;99799.95;;;4.33;72.25
75172;BME280;63750;52.418;20.742;2022-12-07T08:51:06;99796.21;;;4.39;72.07
75172;BME280;63750;52.418;20.742;2022-12-07T08:53:39;99792.64;;;4.45;72.29
75172;BME280;63750;52.418;20.742;2022-12-07T08:56:10;99792.09;;;4.49;72.58
75172;BME280;63750;52.418;20.742;2022-12-07T08:58:42;99793.92;;;4.51;72.37
75172;BME280;63750;52.418;20.742;2022-12-07T09:01:14;99794.07;;;4.51;72.16
75172;BME280;63750;52.418;20.742;2022-12-07T09:03:44;99795.19;;;4.55;72.51
75172;BME280;63750;52.418;20.742;2022-12-07T09:06:13;99787.63;;;4.60;72.24
75172;BME280;63750;52.418;20.742;2022-12-07T09:08:46;99789.05;;;4.65;72.15
75172;BME280;63750;52.418;20.742;2022-12-07T09:11:17;99786.20;;;4.65;71.97
75172;BME280;63750;52.418;20.742;2022-12-07T09:13:49;99783.73;;;4.68;71.83
75172;BME280;63750;52.418;20.742;2022-12-07T09:16:20;99781.56;;;4.68;71.62
75172;BME280;63750;52.418;20.742;2022-12-07T09:18:49;99780.64;;;4.74;72.14
75172;BME280;63750;52.418;20.742;2022-12-07T09:21:19;99777.52;;;4.87;72.43
75172;BME280;63750;52.418;20.742;2022-12-07T09:23:49;99772.65;;;4.98;71.74
75172;BME280;63750;52.418;20.742;2022-12-07T09:26:20;99770.58;;;5.04;71.49
75172;BME280;63750;52.418;20.742;2022-12-07T09:28:50;99765.76;;;5.12;71.25
75172;BME280;63750;52.418;20.742;2022-12-07T09:31:21;99773.47;;;5.12;70.42
75172;BME280;63750;52.418;20.742;2022-12-07T09:33:56;99771.39;;;5.12;70.50
75172;BME280;63750;52.418;20.742;2022-12-07T09:36:27;99774.38;;;5.07;70.10
75172;BME280;63750;52.418;20.742;2022-12-07T09:38:58;99768.79;;;5.03;69.88
75172;BME280;63750;52.418;20.742;2022-12-07T09:41:30;99766.23;;;4.94;70.23
75172;BME280;63750;52.418;20.742;2022-12-07T09:44:05;99765.49;;;4.88;69.86
75172;BME280;63750;52.418;20.742;2022-12-07T09:46:38;99764.37;;;4.87;69.91
75172;BME280;63750;52.418;20.742;2022-12-07T09:49:12;99759.66;;;4.84;70.20
75172;BME280;63750;52.418;20.742;2022-12-07T09:51:46;99762.54;;;4.83;70.29
75172;BME280;63750;52.418;20.742;2022-12-07T09:54:18;99761.10;;;4.79;70.42
75172;BME280;63750;52.418;20.742;2022-12-07T09:56:50;99759.23;;;4.74;70.09
75172;BME280;63750;52.418;20.742;2022-12-07T09:59:21;99759.66;;;4.73;69.99
75172;BME280;63750;52.418;20.742;2022-12-07T10:01:52;99753.39;;;4.70;69.99
75172;BME280;63750;52.418;20.742;2022-12-07T10:04:24;99751.90;;;4.71;69.94
75172;BME280;63750;52.418;20.742;2022-12-07T10:06:54;99756.27;;;4.71;70.23
75172;BME280;63750;52.418;20.742;2022-12-07T10:09:24;99753.66;;;4.76;70.28
75172;BME280;63750;52.418;20.742;2022-12-07T10:12:08;99756.60;;;4.78;69.90
75172;BME280;63750;52.418;20.742;2022-12-07T10:14:39;99756.93;;;4.72;69.87
75172;BME280;63750;52.418;20.742;2022-12-07T10:17:33;99754.54;;;4.71;70.09
75172;BME280;63750;52.418;20.742;2022-12-07T10:20:20;99756.56;;;4.65;70.34
75172;BME280;63750;52.418;20.742;2022-12-07T10:23:04;99762.84;;;4.63;70.26
75172;BME280;63750;52.418;20.742;2022-12-07T10:25:35;99759.11;;;4.56;70.23
75172;BME280;63750;52.418;20.742;2022-12-07T10:28:14;99758.23;;;4.54;70.23
75172;BME280;63750;52.418;20.742;2022-12-07T10:30:56;99758.51;;;4.57;70.42
75172;BME280;63750;52.418;20.742;2022-12-07T10:33:36;99752.58;;;4.64;70.37
75172;BME280;63750;52.418;20.742;2022-12-07T10:39:10;99747.74;;;4.68;70.18
75172;BME280;63750;52.418;20.742;2022-12-07T10:41:55;99751.70;;;4.64;69.96
75172;BME280;63750;52.418;20.742;2022-12-07T10:44:27;99745.13;;;4.70;70.00
75172;BME280;63750;52.418;20.742;2022-12-07T10:47:04;99741.11;;;4.75;69.78
75172;BME280;63750;52.418;20.742;2022-12-07T10:50:06;99743.10;;;4.76;69.71
75172;BME280;63750;52.418;20.742;2022-12-07T10:52:57;99748.67;;;4.76;69.94
75172;BME280;63750;52.418;20.742;2022-12-07T10:55:37;99747.22;;;4.75;69.71
75172;BME280;63750;52.418;20.742;2022-12-07T10:58:23;99744.23;;;4.77;69.95
75172;BME280;63750;52.418;20.742;2022-12-07T11:01:01;99751.84;;;4.74;70.03
75172;BME280;63750;52.418;20.742;2022-12-07T11:06:43;99752.95;;;4.75;69.97
75172;BME280;63750;52.418;20.742;2022-12-07T11:09:40;99751.79;;;4.75;69.60
75172;BME280;63750;52.418;20.742;2022-12-07T11:12:23;99751.41;;;4.75;70.14
75172;BME280;63750;52.418;20.742;2022-12-07T11:14:58;99748.18;;;4.80;69.97
75172;BME280;63750;52.418;20.742;2022-12-07T11:17:35;99750.58;;;4.86;69.95
75172;BME280;63750;52.418;20.742;2022-12-07T11:20:20;99754.00;;;4.85;69.52
75172;BME280;63750;52.418;20.742;2022-12-07T11:22:57;99752.36;;;4.83;69.47
75172;BME280;63750;52.418;20.742;2022-12-07T11:25:34;99749.91;;;4.86;69.73
75172;BME280;63750;52.418;20.742;2022-12-07T11:28:20;99745.59;;;4.89;69.71
75172;BME280;63750;52.418;20.742;2022-12-07T11:30:57;99750.27;;;4.88;69.39
75172;BME280;63750;52.418;20.742;2022-12-07T11:33:35;99748.77;;;4.91;69.44
75172;BME280;63750;52.418;20.742;2022-12-07T11:36:22;99743.42;;;4.94;69.43
75172;BME280;63750;52.418;20.742;2022-12-07T11:38:57;99729.92;;;4.99;69.49
75172;BME280;63750;52.418;20.742;2022-12-07T11:41:29;99728.78;;;5.02;69.24
75172;BME280;63750;52.418;20.742;2022-12-07T11:44:05;99725.29;;;5.04;69.00
75172;BME280;63750;52.418;20.742;2022-12-07T11:46:45;99725.57;;;5.07;69.11
75172;BME280;63750;52.418;20.742;2022-12-07T11:49:20;99719.20;;;5.08;68.78
75172;BME280;63750;52.418;20.742;2022-12-07T11:51:54;99719.57;;;5.10;68.85
75172;BME280;63750;52.418;20.742;2022-12-07T11:54:30;99718.63;;;5.13;69.04
75172;BME280;63750;52.418;20.742;2022-12-07T11:57:10;99713.06;;;5.19;69.29
75172;BME280;63750;52.418;20.742;2022-12-07T11:59:47;99715.75;;;5.21;69.21
75172;BME280;63750;52.418;20.742;2022-12-07T12:02:21;99710.73;;;5.26;69.39
75172;BME280;63750;52.418;20.742;2022-12-07T12:04:55;99712.41;;;5.39;69.27
75172;BME280;63750;52.418;20.742;2022-12-07T12:07:28;99705.91;;;5.46;69.23
75172;BME280;63750;52.418;20.742;2022-12-07T12:10:01;99703.58;;;5.42;68.84
75172;BME280;63750;52.418;20.742;2022-12-07T12:15:34;99697.09;;;5.40;69.17
75172;BME280;63750;52.418;20.742;2022-12-07T12:21:02;99696.70;;;5.38;68.82
75172;BME280;63750;52.418;20.742;2022-12-07T12:23:39;99695.20;;;5.41;68.88
75172;BME280;63750;52.418;20.742;2022-12-07T12:26:17;99692.83;;;5.42;68.75
75172;BME280;63750;52.418;20.742;2022-12-07T12:28:55;99692.34;;;5.39;68.57
75172;BME280;63750;52.418;20.742;2022-12-07T12:31:38;99692.80;;;5.40;68.47
75172;BME280;63750;52.418;20.742;2022-12-07T12:34:31;99690.37;;;5.34;68.85
75172;BME280;63750;52.418;20.742;2022-12-07T12:37:01;99687.27;;;5.33;68.97
75172;BME280;63750;52.418;20.742;2022-12-07T12:39:31;99688.41;;;5.29;68.96
75172;BME280;63750;52.418;20.742;2022-12-07T12:42:01;99684.95;;;5.30;68.66
75172;BME280;63750;52.418;20.742;2022-12-07T12:47:53;99679.20;;;5.30;68.89
75172;BME280;63750;52.418;20.742;2022-12-07T12:50:25;99671.63;;;5.30;69.05
75172;BME280;63750;52.418;20.742;2022-12-07T12:53:00;99670.63;;;5.34;69.13
75172;BME280;63750;52.418;20.742;2022-12-07T12:58:41;99669.76;;;5.36;69.09
75172;BME280;63750;52.418;20.742;2022-12-07T13:04:47;99669.89;;;5.39;69.52
75172;BME280;63750;52.418;20.742;2022-12-07T13:07:52;99670.52;;;5.38;69.74
75172;BME280;63750;52.418;20.742;2022-12-07T13:10:29;99666.73;;;5.39;69.65
75172;BME280;63750;52.418;20.742;2022-12-07T13:13:03;99668.20;;;5.45;69.84
75172;BME280;63750;52.418;20.742;2022-12-07T13:15:38;99671.44;;;5.42;69.38
75172;BME280;63750;52.418;20.742;2022-12-07T13:18:25;99663.29;;;5.36;69.25
75172;BME280;63750;52.418;20.742;2022-12-07T13:21:02;99665.90;;;5.32;69.56
75172;BME280;63750;52.418;20.742;2022-12-07T13:23:57;99665.30;;;5.33;69.99
75172;BME280;63750;52.418;20.742;2022-12-07T13:26:37;99663.50;;;5.29;69.40
75172;BME280;63750;52.418;20.742;2022-12-07T13:29:12;99662.55;;;5.27;69.35
75172;BME280;63750;52.418;20.742;2022-12-07T13:31:43;99664.02;;;5.27;69.52
75172;BME280;63750;52.418;20.742;2022-12-07T13:34:33;99667.17;;;5.22;69.59
75172;BME280;63750;52.418;20.742;2022-12-07T13:37:04;99663.17;;;5.17;69.52
75172;BME280;63750;52.418;20.742;2022-12-07T13:39:47;99662.07;;;5.16;69.74
75172;BME280;63750;52.418;20.742;2022-12-07T13:42:24;99661.52;;;5.16;69.75
75172;BME280;63750;52.418;20.742;2022-12-07T13:44:56;99663.52;;;5.20;69.82
75172;BME280;63750;52.418;20.742;2022-12-07T13:47:31;99663.17;;;5.15;69.86
75172;BME280;63750;52.418;20.742;2022-12-07T13:50:02;99660.00;;;5.13;69.80
75172;BME280;63750;52.418;20.742;2022-12-07T13:52:49;99662.85;;;5.15;70.03
75172;BME280;63750;52.418;20.742;2022-12-07T13:55:18;99666.50;;;5.13;70.22